createdAt,value
2023-01-05T00:01:10.783Z,41.63
2023-01-05T00:03:38.209Z,41.65
2023-01-05T00:06:11.288Z,41.63
2023-01-05T00:08:38.579Z,41.62
2023-01-05T00:11:31.285Z,41.62
2023-01-05T00:14:18.612Z,41.61
2023-01-05T00:17:04.408Z,41.58
2023-01-05T00:19:50.778Z,41.51
2023-01-05T00:22:32.203Z,41.42
2023-01-05T00:25:12.258Z,41.45
2023-01-05T00:27:41.702Z,41.23
2023-01-05T00:30:10.824Z,41.21
2023-01-05T00:32:37.575Z,41.30
2023-01-05T00:35:04.978Z,41.42
2023-01-05T00:37:33.571Z,41.36
2023-01-05T00:40:00.231Z,41.20
2023-01-05T00:42:27.876Z,41.30
2023-01-05T00:44:54.562Z,41.27
2023-01-05T00:47:21.206Z,41.20
2023-01-05T00:49:48.513Z,41.10
2023-01-05T00:52:15.341Z,41.09
2023-01-05T00:54:42.629Z,41.15
2023-01-05T00:57:13.339Z,41.04
2023-01-05T00:59:40.278Z,41.08
2023-01-05T01:02:07.448Z,40.90
2023-01-05T01:04:35.250Z,41.12
2023-01-05T01:07:04.577Z,41.14
2023-01-05T01:09:32.043Z,41.18
2023-01-05T01:11:58.677Z,41.07
2023-01-05T01:14:25.473Z,41.01
2023-01-05T01:16:52.163Z,40.89
2023-01-05T01:19:21.542Z,40.96
2023-01-05T01:21:48.695Z,40.92
2023-01-05T01:24:18.819Z,40.78
2023-01-05T01:26:45.634Z,40.80
2023-01-05T01:29:12.414Z,40.67
2023-01-05T01:31:39.253Z,40.52
2023-01-05T01:34:06.233Z,40.71
2023-01-05T01:36:32.991Z,40.81
2023-01-05T01:39:00.659Z,40.75
2023-01-05T01:41:32.105Z,40.52
2023-01-05T01:43:59.138Z,40.71
2023-01-05T01:46:27.929Z,40.25
2023-01-05T01:49:08.872Z,40.73
2023-01-05T01:51:47.542Z,40.46
2023-01-05T01:54:18.039Z,40.41
2023-01-05T01:56:53.361Z,40.52
2023-01-05T01:59:21.155Z,40.43
2023-01-05T02:01:51.500Z,40.44
2023-01-05T02:04:20.062Z,40.26
2023-01-05T02:06:47.759Z,40.31
2023-01-05T02:09:14.412Z,40.39
2023-01-05T02:12:01.297Z,40.40
2023-01-05T02:14:45.893Z,40.17
2023-01-05T02:17:45.482Z,40.23
2023-01-05T02:20:27.351Z,40.20
2023-01-05T02:23:23.213Z,40.17
2023-01-05T02:26:08.721Z,40.13
2023-01-05T02:28:57.195Z,39.97
2023-01-05T02:31:55.669Z,39.94
2023-01-05T02:34:28.701Z,40.00
2023-01-05T02:37:05.908Z,40.19
2023-01-05T02:39:41.643Z,40.26
2023-01-05T02:42:13.813Z,40.10
2023-01-05T02:44:41.517Z,40.09
2023-01-05T02:47:28.294Z,39.89
2023-01-05T02:50:01.052Z,39.96
2023-01-05T02:52:42.253Z,40.02
2023-01-05T02:55:13.480Z,40.10
2023-01-05T02:57:50.551Z,40.04
2023-01-05T03:00:33.166Z,40.04
2023-01-05T03:03:16.990Z,40.12
2023-01-05T03:05:53.904Z,40.04
2023-01-05T03:08:26.278Z,39.92
2023-01-05T03:11:24.610Z,39.95
2023-01-05T03:14:01.094Z,39.96
2023-01-05T03:16:48.069Z,39.86
2023-01-05T03:19:36.616Z,39.87
2023-01-05T03:22:29.619Z,39.99
2023-01-05T03:25:15.554Z,40.07
2023-01-05T03:28:03.071Z,40.21
2023-01-05T03:30:58.481Z,40.13
2023-01-05T03:34:09.232Z,40.09
2023-01-05T03:37:03.696Z,40.14
2023-01-05T03:39:32.790Z,40.25
2023-01-05T03:42:03.162Z,40.24
2023-01-05T03:44:30.145Z,40.20
2023-01-05T03:46:57.978Z,40.31
2023-01-05T03:49:25.155Z,40.20
2023-01-05T03:51:52.430Z,40.20
2023-01-05T03:54:19.196Z,40.04
2023-01-05T03:56:47.468Z,40.10
2023-01-05T03:59:14.541Z,40.01
2023-01-05T04:01:42.642Z,39.94
2023-01-05T04:04:13.079Z,40.10
2023-01-05T04:06:39.789Z,39.93
2023-01-05T04:09:08.653Z,39.73
2023-01-05T04:11:35.347Z,39.97
2023-01-05T04:14:05.477Z,39.81
2023-01-05T04:16:34.198Z,39.93
2023-01-05T04:19:07.990Z,39.85
2023-01-05T04:21:34.767Z,39.87
2023-01-05T04:24:02.977Z,40.02
2023-01-05T04:26:29.721Z,39.92
2023-01-05T04:28:56.825Z,39.88
2023-01-05T04:31:25.374Z,40.07
2023-01-05T04:33:54.913Z,40.01
2023-01-05T04:36:23.667Z,40.08
2023-01-05T04:38:50.371Z,39.90
2023-01-05T04:41:17.735Z,39.86
2023-01-05T04:43:48.056Z,39.83
2023-01-05T04:46:15.740Z,40.02
2023-01-05T04:48:45.430Z,40.10
2023-01-05T04:51:13.554Z,40.00
2023-01-05T04:53:40.212Z,39.82
2023-01-05T04:56:11.498Z,39.79
2023-01-05T04:58:42.039Z,39.78
2023-01-05T05:01:09.163Z,39.70
2023-01-05T05:03:37.725Z,39.74
2023-01-05T05:06:08.234Z,39.65
2023-01-05T05:08:35.716Z,39.72
2023-01-05T05:11:04.488Z,39.59
2023-01-05T05:13:33.953Z,39.45
2023-01-05T05:16:02.331Z,39.43
2023-01-05T05:18:30.709Z,39.36
2023-01-05T05:20:57.412Z,39.52
2023-01-05T05:23:29.303Z,39.46
2023-01-05T05:25:57.283Z,39.26
2023-01-05T05:28:28.281Z,39.31
2023-01-05T05:30:56.795Z,39.49
2023-01-05T05:33:24.641Z,39.40
2023-01-05T05:35:51.617Z,39.62
2023-01-05T05:38:18.273Z,39.44
2023-01-05T05:40:47.797Z,39.61
2023-01-05T05:43:14.467Z,39.48
2023-01-05T05:45:46.254Z,39.46
2023-01-05T05:48:16.816Z,39.54
2023-01-05T05:50:45.100Z,39.42
2023-01-05T05:53:11.917Z,39.42
2023-01-05T05:55:38.632Z,39.39
2023-01-05T05:58:05.295Z,39.56
2023-01-05T06:00:32.071Z,39.43
2023-01-05T06:02:58.804Z,39.33
2023-01-05T06:05:25.588Z,39.28
2023-01-05T06:07:52.364Z,39.36
2023-01-05T06:10:19.101Z,39.10
2023-01-05T06:12:45.996Z,39.53
2023-01-05T06:15:12.886Z,39.25
2023-01-05T06:17:39.632Z,39.32
2023-01-05T06:20:07.280Z,39.41
2023-01-05T06:22:34.015Z,39.46
2023-01-05T06:25:00.665Z,39.40
2023-01-05T06:27:27.291Z,39.51
2023-01-05T06:29:53.951Z,39.30
2023-01-05T06:32:20.757Z,39.48
2023-01-05T06:34:47.470Z,39.36
2023-01-05T06:37:14.356Z,39.32
2023-01-05T06:39:41.102Z,39.38
2023-01-05T06:42:07.817Z,39.23
2023-01-05T06:44:34.622Z,39.55
2023-01-05T06:47:01.496Z,39.30
2023-01-05T06:49:28.263Z,39.25
2023-01-05T06:51:55.172Z,39.49
2023-01-05T06:54:22.178Z,39.33
2023-01-05T06:56:48.871Z,39.33
2023-01-05T06:59:15.646Z,39.33
2023-01-05T07:01:42.423Z,39.30
2023-01-05T07:04:09.351Z,39.27
2023-01-05T07:06:36.242Z,39.23
2023-01-05T07:09:03.122Z,39.19
2023-01-05T07:11:29.868Z,39.12
2023-01-05T07:13:56.502Z,39.15
2023-01-05T07:16:23.199Z,39.17
2023-01-05T07:18:49.948Z,39.23
2023-01-05T07:21:16.705Z,39.28
2023-01-05T07:23:43.388Z,39.26
2023-01-05T07:26:10.622Z,39.25
2023-01-05T07:28:38.008Z,39.31
2023-01-05T07:31:07.493Z,39.33
2023-01-05T07:33:39.586Z,39.33
2023-01-05T07:36:07.286Z,39.33
2023-01-05T07:38:34.282Z,39.30
2023-01-05T07:41:01.686Z,39.31
2023-01-05T07:43:28.446Z,39.28
2023-01-05T07:46:03.555Z,39.31
2023-01-05T07:48:30.449Z,39.28
2023-01-05T07:51:01.633Z,39.27
2023-01-05T07:53:29.809Z,39.29
2023-01-05T07:56:00.789Z,39.33
2023-01-05T07:58:29.000Z,39.26
2023-01-05T08:00:56.593Z,39.36
2023-01-05T08:03:23.818Z,39.31
2023-01-05T08:05:50.539Z,39.31
2023-01-05T08:08:23.978Z,39.27
2023-01-05T08:10:51.166Z,39.24
2023-01-05T08:13:36.723Z,39.33
2023-01-05T08:16:03.841Z,39.33
2023-01-05T08:18:30.678Z,39.30
2023-01-05T08:21:00.751Z,39.24
2023-01-05T08:23:28.456Z,39.29
2023-01-05T08:25:56.023Z,39.27
2023-01-05T08:28:28.358Z,39.24
2023-01-05T08:31:05.523Z,39.24
2023-01-05T08:33:32.896Z,39.23
2023-01-05T08:36:00.062Z,39.23
2023-01-05T08:38:27.146Z,39.20
2023-01-05T08:40:53.999Z,39.23
2023-01-05T08:43:20.690Z,39.26
2023-01-05T08:45:50.351Z,39.21
2023-01-05T08:48:17.327Z,39.09
2023-01-05T08:50:44.066Z,38.78
2023-01-05T08:53:10.895Z,38.79
2023-01-05T08:55:37.642Z,38.81
2023-01-05T08:58:06.586Z,38.86
2023-01-05T09:00:34.048Z,38.83
2023-01-05T09:03:01.329Z,38.85
2023-01-05T09:05:28.373Z,38.83
2023-01-05T09:07:55.114Z,38.78
2023-01-05T09:10:21.973Z,38.85
2023-01-05T09:12:48.864Z,38.78
2023-01-05T09:15:15.594Z,38.78
2023-01-05T09:17:42.319Z,38.76
2023-01-05T09:20:09.503Z,38.78
2023-01-05T09:22:36.292Z,38.78
2023-01-05T09:25:04.456Z,38.74
2023-01-05T09:27:31.704Z,38.60
2023-01-05T09:29:58.389Z,38.53
2023-01-05T09:32:25.140Z,38.49
2023-01-05T09:34:51.783Z,38.50
2023-01-05T09:37:18.443Z,38.47
2023-01-05T09:39:45.108Z,38.48
2023-01-05T09:42:17.353Z,38.46
2023-01-05T09:44:52.666Z,38.46
2023-01-05T09:47:31.984Z,38.50
2023-01-05T09:50:00.675Z,38.57
2023-01-05T09:52:30.363Z,38.56
2023-01-05T09:54:59.872Z,38.56
2023-01-05T09:57:30.440Z,38.58
2023-01-05T10:00:02.337Z,38.56
2023-01-05T10:02:37.444Z,38.52
2023-01-05T10:05:06.239Z,38.46
2023-01-05T10:07:44.344Z,38.40
2023-01-05T10:11:09.700Z,38.35
2023-01-05T10:13:44.712Z,38.26
2023-01-05T10:16:17.447Z,38.31
2023-01-05T10:18:45.551Z,38.26
2023-01-05T10:21:46.330Z,38.19
2023-01-05T10:24:23.830Z,38.12
2023-01-05T10:27:26.230Z,38.11
2023-01-05T10:30:22.999Z,38.13
2023-01-05T10:33:25.570Z,38.05
2023-01-05T10:39:25.967Z,37.84
2023-01-05T10:41:58.528Z,37.79
2023-01-05T10:44:33.964Z,37.77
2023-01-05T10:47:01.225Z,37.82
2023-01-05T10:49:31.095Z,37.82
2023-01-05T10:52:00.619Z,37.82
2023-01-05T10:54:39.141Z,37.86
2023-01-05T10:57:39.300Z,37.91
2023-01-05T11:00:19.464Z,37.88
2023-01-05T11:02:51.168Z,37.85
2023-01-05T11:05:27.757Z,37.72
2023-01-05T11:08:00.976Z,37.67
2023-01-05T11:10:30.151Z,37.69
2023-01-05T11:13:03.396Z,37.72
2023-01-05T11:15:41.950Z,37.72
2023-01-05T11:18:25.674Z,37.65
2023-01-05T11:21:28.919Z,37.62
2023-01-05T11:23:58.688Z,37.56
2023-01-05T11:26:27.173Z,37.44
2023-01-05T11:29:05.025Z,37.35
2023-01-05T11:31:37.650Z,37.30
2023-01-05T11:34:19.657Z,37.22
2023-01-05T11:37:12.750Z,37.08
2023-01-05T11:39:52.600Z,36.96
2023-01-05T11:42:26.078Z,36.82
2023-01-05T11:45:16.456Z,36.87
2023-01-05T11:48:06.974Z,36.72
2023-01-05T11:50:49.059Z,36.78
2023-01-05T11:53:24.548Z,36.72
2023-01-05T11:56:04.970Z,36.71
2023-01-05T11:58:44.024Z,36.61
2023-01-05T12:01:24.124Z,36.62
2023-01-05T12:04:17.110Z,36.62
2023-01-05T12:06:55.688Z,36.51
2023-01-05T12:09:37.317Z,36.25
2023-01-05T12:12:15.864Z,36.18
2023-01-05T12:14:58.954Z,36.02
2023-01-05T12:17:48.929Z,35.40
2023-01-05T12:20:33.719Z,33.10
2023-01-05T12:23:23.210Z,33.73
2023-01-05T12:26:28.410Z,34.22
2023-01-05T12:30:43.291Z,31.55
2023-01-05T12:35:08.626Z,29.00
2023-01-05T12:37:45.451Z,27.09
2023-01-05T12:40:21.805Z,29.97
2023-01-05T12:43:01.848Z,31.30
2023-01-05T12:45:37.232Z,33.31
2023-01-05T12:48:10.452Z,34.72
2023-01-05T12:50:43.651Z,35.24
2023-01-05T12:53:15.413Z,35.67
2023-01-05T12:55:46.852Z,35.90
2023-01-05T12:58:20.836Z,35.91
2023-01-05T13:00:49.986Z,35.70
2023-01-05T13:03:41.286Z,35.80
2023-01-05T13:06:16.003Z,35.92
2023-01-05T13:08:49.263Z,36.06
2023-01-05T13:11:18.433Z,35.96
2023-01-05T13:13:51.413Z,35.92
2023-01-05T13:16:20.836Z,36.02
2023-01-05T13:18:53.639Z,36.14
2023-01-05T13:21:21.876Z,36.27
2023-01-05T13:23:57.396Z,36.38
2023-01-05T13:26:24.435Z,36.44
2023-01-05T18:34:32.132Z,29.35
2023-01-05T18:45:20.248Z,26.75
2023-01-05T18:47:56.783Z,30.11
2023-01-05T18:50:23.748Z,32.19
2023-01-05T18:52:50.603Z,33.43
2023-01-05T18:55:17.323Z,34.21
2023-01-05T18:57:43.988Z,34.76
2023-01-05T19:00:11.278Z,35.20
2023-01-05T19:02:39.399Z,35.50
2023-01-05T19:05:06.217Z,35.64
2023-01-05T19:07:32.828Z,35.70
2023-01-05T19:09:59.449Z,35.85
2023-01-05T19:12:26.169Z,35.87
2023-01-05T19:28:37.823Z,31.68
2023-01-05T19:31:10.054Z,24.69
2023-01-05T19:33:37.350Z,27.31
2023-01-05T19:36:13.142Z,29.61
2023-01-05T19:38:40.743Z,31.49
2023-01-05T19:41:24.670Z,32.90
2023-01-05T19:43:53.666Z,33.80
2023-01-05T19:46:22.110Z,34.38
2023-01-05T19:48:49.199Z,34.87
2023-01-05T19:51:22.373Z,34.86
2023-01-05T19:54:02.664Z,35.14
2023-01-05T19:56:32.116Z,35.29
2023-01-05T19:59:05.198Z,35.85
2023-01-05T20:01:35.409Z,35.78
2023-01-05T20:04:02.688Z,35.67
2023-01-05T20:06:36.653Z,45.78
2023-01-05T20:09:08.501Z,28.61
2023-01-05T20:11:43.315Z,29.90
2023-01-05T20:14:15.245Z,31.02
2023-01-05T20:16:51.618Z,32.35
2023-01-05T20:19:20.132Z,32.28
2023-01-05T20:21:50.923Z,34.34
2023-01-05T20:24:22.404Z,30.35
2023-01-05T20:26:51.081Z,24.75
2023-01-05T20:29:19.722Z,24.90
2023-01-05T20:31:56.026Z,24.86
2023-01-05T20:34:25.408Z,26.94
2023-01-05T20:40:06.415Z,26.86
2023-01-05T20:42:33.316Z,27.55
2023-01-05T20:45:02.899Z,28.32
2023-01-05T20:47:31.870Z,36.92
2023-01-05T20:50:03.564Z,29.10
2023-01-05T20:52:30.308Z,28.97
2023-01-05T20:56:09.642Z,25.73
2023-01-05T21:02:45.419Z,25.94
2023-01-05T21:05:12.791Z,15.49
2023-01-05T21:07:39.536Z,13.36
2023-01-05T21:10:06.643Z,19.73
2023-01-05T21:12:33.301Z,20.60
2023-01-05T21:15:00.006Z,18.04
2023-01-05T21:17:27.147Z,25.77
2023-01-05T21:19:53.830Z,19.86
2023-01-05T21:22:21.524Z,21.63
2023-01-05T21:24:48.226Z,19.65
2023-01-05T21:27:14.942Z,21.26
2023-01-05T21:29:41.700Z,22.59
2023-01-05T21:32:08.492Z,28.01
2023-01-05T21:34:35.214Z,25.68
2023-01-05T21:37:02.035Z,24.78
2023-01-05T21:39:28.726Z,25.75
2023-01-05T21:42:14.051Z,24.62
2023-01-05T21:44:41.045Z,23.91
2023-01-05T21:47:08.284Z,26.06
2023-01-05T21:49:36.383Z,21.53
2023-01-05T21:52:22.746Z,24.56
2023-01-05T21:55:07.866Z,18.80
2023-01-05T21:57:34.567Z,18.97
2023-01-05T22:07:08.111Z,19.18
2023-01-05T22:09:36.263Z,23.50
2023-01-05T22:12:07.187Z,20.97
2023-01-05T22:14:34.296Z,23.60
2023-01-05T22:19:10.951Z,31.56
2023-01-05T22:21:37.974Z,35.62
2023-01-05T22:24:05.169Z,41.03
2023-01-05T22:26:32.405Z,45.03
2023-01-05T22:28:59.064Z,48.31
2023-01-05T22:31:28.058Z,50.74
2023-01-05T22:33:57.476Z,53.04
2023-01-05T22:36:26.223Z,54.49
2023-01-05T22:38:54.284Z,55.54
2023-01-05T22:41:27.103Z,56.90
2023-01-05T22:43:53.810Z,57.28
2023-01-05T22:46:22.994Z,57.74
2023-01-05T22:48:51.784Z,58.21
2023-01-05T22:51:24.573Z,58.83
2023-01-05T22:53:51.781Z,59.19
2023-01-05T22:56:20.503Z,59.38
2023-01-05T22:58:47.211Z,59.67
2023-01-05T23:01:30.662Z,59.75
2023-01-05T23:03:59.136Z,59.20
2023-01-05T23:06:26.720Z,57.52
2023-01-05T23:08:54.471Z,56.87
2023-01-05T23:11:27.373Z,56.07
2023-01-05T23:13:55.146Z,55.33
2023-01-05T23:16:21.951Z,55.07
2023-01-05T23:18:51.637Z,54.71
2023-01-05T23:21:19.848Z,55.00
2023-01-05T23:23:46.699Z,55.54
2023-01-05T23:26:15.062Z,56.07
2023-01-05T23:28:42.944Z,56.49
2023-01-05T23:31:11.585Z,56.88
2023-01-05T23:33:38.307Z,56.57
2023-01-05T23:36:05.501Z,57.34
2023-01-05T23:38:33.415Z,57.46
2023-01-05T23:41:03.205Z,57.78
2023-01-05T23:43:30.007Z,57.77
2023-01-05T23:46:06.609Z,57.39
2023-01-05T23:48:35.980Z,58.00
2023-01-05T23:51:04.599Z,58.55
2023-01-05T23:53:31.642Z,58.95
2023-01-05T23:56:18.022Z,59.27
2023-01-05T23:58:45.405Z,59.48
